Flight Track Log - Related Links

Times and Time Zones

All times are in EDT time to prevent confusion due to time zone crossing. See the KAP46 flight status page for this flight to view local times or setup timezone preferences in your user account.

Time Position Orientation Groundspeed Altitude Reporting Facility
EDT Latitude Longitude Course Direction KTS MPH feet Rate Location/Type
Thu 02:39:16 PM 42.7172 -73.8050 173° South 103 119 1,200  Level Boston Center
Thu 02:40:16 PM 42.7067 -73.8358 245° Southwest 121 139 1,800 496 Climbing Boston Center
Thu 02:41:17 PM 42.7397 -73.8564 335° Northwest 140 161 2,200 492 Climbing Boston Center
Thu 02:42:18 PM 42.7769 -73.8628 353° North 138 159 2,800 545 Climbing Boston Center
Thu 02:43:18 PM 42.8144 -73.8667 356° North 139 160 3,300 567 Climbing Boston Center
Thu 02:44:25 PM 42.8542 -73.8703 356° North 135 155 4,000 558 Climbing Boston Center
Thu 02:45:27 PM 42.8917 -73.8739 356° North 131 151 4,500 393 Climbing Boston Center
Thu 02:46:27 PM 42.9289 -73.8864 346° North 137 158 4,800 397 Climbing Boston Center
Thu 02:47:28 PM 42.9706 -73.8958 351° North 149 171 5,300 492 Climbing Boston Center
Thu 02:48:29 PM 43.0122 -73.8997 356° North 146 168 5,800 520 Climbing Boston Center
Thu 02:49:35 PM 43.0539 -73.9006 359° North 144 166 6,400 509 Climbing Boston Center
Thu 02:50:15 PM 43.0808 -73.8983 North 143 165 6,700 429 Climbing Boston Center
Thu 02:51:13 PM 43.1244 -73.9108 348° North 147 169 7,100 151 Climbing Boston Center
Thu 02:52:14 PM 43.1661 -73.9147 356° North 168 193 7,000  Descending Boston Center
Thu 02:53:15 PM 43.2119 -73.9242 351° North 177 204 7,100 50 Climbing Boston Center
Thu 02:54:13 PM 43.2617 -73.9342 352° North 177 204 7,100 -51 Level Boston Center
Thu 02:55:13 PM 43.3053 -73.9581 338° Northwest 177 204 7,000  Descending Boston Center
Thu 02:56:13 PM 43.3486 -73.9819 338° Northwest 170 196 7,100 50 Climbing Boston Center
Thu 02:57:14 PM 43.3942 -74.0058 339° North 170 196 7,100 -49 Level Boston Center
Thu 02:58:15 PM 43.4375 -74.0297 338° Northwest 170 196 7,000 -50 Descending Boston Center
Thu 02:59:14 PM 43.4769 -74.0508 339° North 165 190 7,000 50 Level Boston Center
Thu 03:00:14 PM 43.5183 -74.0750 337° Northwest 165 190 7,100 50 Climbing Boston Center
Thu 03:01:15 PM 43.5575 -74.0931 342° North 159 183 7,100  Level Boston Center
Thu 03:02:13 PM 43.5906 -74.1114 338° Northwest 152 175 7,100  Level Boston Center
Thu 03:03:13 PM 43.6300 -74.1325 339° North 152 175 7,100  Level Boston Center
Thu 03:04:14 PM 43.6692 -74.1536 339° North 152 175 7,100 -50 Level Boston Center
Thu 03:05:12 PM 43.7086 -74.1750 339° North 152 175 7,000 -50 Descending Boston Center
Thu 03:06:13 PM 43.7500 -74.1961 340° North 152 175 7,000  Level Boston Center
Thu 03:07:15 PM 43.7911 -74.2175 339° North 152 175 7,000  Level Boston Center
Thu 03:08:15 PM 43.8283 -74.2389 337° Northwest 152 175 7,000 51 Level Boston Center
Thu 03:09:13 PM 43.8678 -74.2600 339° North 152 175 7,100  Climbing Boston Center
Thu 03:10:13 PM 43.9047 -74.2814 337° Northwest 152 175 7,000 -50 Descending Boston Center
Thu 03:11:14 PM 43.9442 -74.2969 344° North 152 175 7,000  Level Boston Center
Thu 03:12:15 PM 43.9814 -74.3214 335° Northwest 152 175 7,000  Level Boston Center
Thu 03:13:27 PM 44.0225 -74.3456 337° Northwest 152 175 7,000  Level Boston Center
Thu 03:14:25 PM 44.0619 -74.3642 341° North 152 175 7,000  Level Boston Center
Thu 03:15:25 PM 44.1114 -74.3919 338° Northwest 152 175 7,000 50 Level Boston Center
Thu 03:16:26 PM 44.1569 -74.4164 339° North 157 181 7,100  Climbing Boston Center
Thu 03:17:26 PM 44.2044 -74.4414 339° North 167 192 7,000 -50 Descending Boston Center
Thu 03:18:27 PM 44.2456 -74.4658 337° Northwest 167 192 7,000 -149 Level Boston Center
Thu 03:19:27 PM 44.2869 -74.4875 339° North 167 192 6,700 -277 Descending Boston Center
Thu 03:20:37 PM 44.3322 -74.5094 341° North 172 198 6,400 -294 Descending Boston Center
Thu 03:21:50 PM 44.3881 -74.5375 340° North 172 198 6,000 -226 Descending Boston Center
Thu 03:22:50 PM 44.4356 -74.5683 335° Northwest 167 192 5,900  Descending Boston Center
Thu 03:23:51 PM 44.4769 -74.5844 344° North 162 186 6,000  Climbing Boston Center
Thu 03:24:49 PM 44.5181 -74.6033 342° North 157 181 5,900 -254 Descending Boston Center
Thu 03:25:49 PM 44.5592 -74.6369 330° Northwest 152 175 5,500 -298 Descending Boston Center
Thu 03:26:50 PM 44.6044 -74.6619 339° North 158 182 5,300 -149 Descending Boston Center
Thu 03:27:50 PM 44.6500 -74.6869 339° North 164 189 5,200 -100 Descending Boston Center

Login

Don't have an account? Register now (free) for customized features, flight alerts, and more!